createdAt,value
2017-03-08T00:00:35.827Z,2.72
2017-03-08T00:01:16.307Z,2.77
2017-03-08T00:01:56.839Z,2.77
2017-03-08T00:02:37.270Z,2.71
2017-03-08T00:03:17.725Z,2.72
2017-03-08T00:03:58.202Z,2.68
2017-03-08T00:04:38.662Z,2.69
2017-03-08T00:05:19.173Z,2.68
2017-03-08T00:05:59.648Z,2.69
2017-03-08T00:06:40.135Z,2.69
2017-03-08T00:07:20.590Z,2.68
2017-03-08T00:08:01.076Z,2.68
2017-03-08T00:08:41.510Z,2.67
2017-03-08T00:09:21.979Z,2.71
2017-03-08T00:10:02.525Z,2.68
2017-03-08T00:10:43.011Z,2.64
2017-03-08T00:11:23.507Z,2.71
2017-03-08T00:12:03.954Z,2.65
2017-03-08T00:12:44.397Z,2.67
2017-03-08T00:13:24.867Z,2.74
2017-03-08T00:14:05.329Z,2.67
2017-03-08T00:14:45.905Z,2.68
2017-03-08T00:15:26.376Z,2.62
2017-03-08T00:16:06.850Z,2.69
2017-03-08T00:16:47.330Z,2.71
2017-03-08T00:17:27.855Z,2.68
2017-03-08T00:18:08.336Z,2.72
2017-03-08T00:18:48.748Z,2.68
2017-03-08T00:19:29.262Z,2.71
2017-03-08T00:20:09.754Z,2.74
2017-03-08T00:20:50.296Z,2.77
2017-03-08T00:21:30.775Z,2.72
2017-03-08T00:22:11.267Z,2.75
2017-03-08T00:22:51.742Z,2.75
2017-03-08T00:23:32.274Z,2.87
2017-03-08T00:24:12.732Z,2.77
2017-03-08T00:24:53.217Z,2.87
2017-03-08T00:25:33.714Z,2.87
2017-03-08T00:26:14.209Z,2.86
2017-03-08T00:26:54.650Z,2.86
2017-03-08T00:27:35.189Z,2.89
2017-03-08T00:28:15.661Z,2.93
2017-03-08T00:28:56.100Z,2.9
2017-03-08T00:29:36.636Z,2.93
2017-03-08T00:30:17.080Z,2.8
2017-03-08T00:30:57.516Z,2.89
2017-03-08T00:31:38.013Z,2.85
2017-03-08T00:32:18.469Z,2.79
2017-03-08T00:32:58.991Z,2.8
2017-03-08T00:33:39.443Z,2.86
2017-03-08T00:34:19.902Z,2.83
2017-03-08T00:35:00.419Z,2.9
2017-03-08T00:35:40.863Z,2.89
2017-03-08T00:36:21.341Z,2.89
2017-03-08T00:37:01.854Z,2.9
2017-03-08T00:37:42.303Z,2.9
2017-03-08T00:38:22.813Z,2.86
2017-03-08T00:39:03.232Z,2.97
2017-03-08T00:39:43.731Z,2.93
2017-03-08T00:40:24.212Z,2.89
2017-03-08T00:41:04.667Z,2.86
2017-03-08T00:41:45.198Z,2.8
2017-03-08T00:42:25.664Z,2.87
2017-03-08T00:43:06.108Z,2.9
2017-03-08T00:43:46.578Z,2.9
2017-03-08T00:44:27.145Z,2.89
2017-03-08T00:45:07.638Z,2.92
2017-03-08T00:45:48.136Z,2.89
2017-03-08T00:46:28.635Z,2.9
2017-03-08T00:47:09.082Z,2.92
2017-03-08T00:47:49.571Z,2.9
2017-03-08T00:48:30.037Z,2.93
2017-03-08T00:49:10.561Z,2.92
2017-03-08T00:49:51.045Z,2.97
2017-03-08T00:50:31.546Z,2.89
2017-03-08T00:51:12.011Z,2.9
2017-03-08T00:51:52.453Z,2.93
2017-03-08T00:52:32.941Z,3
2017-03-08T00:53:13.437Z,3.04
2017-03-08T00:53:53.974Z,2.95
2017-03-08T00:54:34.408Z,3
2017-03-08T00:55:14.900Z,2.98
2017-03-08T00:55:55.366Z,2.87
2017-03-08T00:56:35.874Z,2.89
2017-03-08T00:57:16.349Z,2.93
2017-03-08T00:57:56.852Z,2.92
2017-03-08T00:58:37.302Z,2.92
2017-03-08T00:59:17.845Z,2.87
2017-03-08T00:59:58.239Z,2.86
2017-03-08T01:00:38.702Z,2.83
2017-03-08T01:01:19.176Z,2.92
2017-03-08T01:01:59.726Z,2.83
2017-03-08T01:02:40.156Z,2.89
2017-03-08T01:03:20.690Z,2.89
2017-03-08T01:04:01.155Z,2.9
2017-03-08T01:04:41.671Z,2.87
2017-03-08T01:05:22.179Z,2.9
2017-03-08T01:06:02.628Z,2.87
2017-03-08T01:06:43.094Z,2.89
2017-03-08T01:07:23.615Z,2.9
2017-03-08T01:08:04.089Z,2.89
2017-03-08T01:08:44.556Z,2.82
2017-03-08T01:09:25.024Z,2.9
2017-03-08T01:10:05.510Z,2.92
2017-03-08T01:10:45.983Z,2.93
2017-03-08T01:11:26.528Z,2.93
2017-03-08T01:12:07.157Z,2.93
2017-03-08T01:12:47.678Z,2.92
2017-03-08T01:13:28.115Z,2.89
2017-03-08T01:14:08.584Z,2.87
2017-03-08T01:14:49.047Z,2.92
2017-03-08T01:15:29.512Z,2.83
2017-03-08T01:16:09.973Z,2.83
2017-03-08T01:16:50.503Z,2.83
2017-03-08T01:17:31.000Z,2.87
2017-03-08T01:18:11.551Z,2.82
2017-03-08T01:18:52.035Z,2.8
2017-03-08T01:19:32.500Z,2.77
2017-03-08T01:20:12.974Z,2.89
2017-03-08T01:20:53.477Z,2.82
2017-03-08T01:21:33.908Z,2.89
2017-03-08T01:22:14.385Z,2.79
2017-03-08T01:22:54.910Z,2.85
2017-03-08T01:23:35.453Z,2.92
2017-03-08T01:24:15.878Z,2.87
2017-03-08T01:24:56.406Z,2.87
2017-03-08T01:25:36.924Z,2.86
2017-03-08T01:26:17.353Z,2.85
2017-03-08T01:26:57.816Z,2.82
2017-03-08T01:27:38.312Z,2.86
2017-03-08T01:28:18.768Z,2.92
2017-03-08T01:28:59.239Z,2.9
2017-03-08T01:29:39.717Z,2.89
2017-03-08T01:30:20.216Z,2.83
2017-03-08T01:31:00.707Z,2.89
2017-03-08T01:31:41.184Z,2.79
2017-03-08T01:32:21.642Z,2.9
2017-03-08T01:33:02.113Z,2.86
2017-03-08T01:33:42.597Z,2.87
2017-03-08T01:34:23.055Z,2.87
2017-03-08T01:35:03.529Z,2.82
2017-03-08T01:35:43.984Z,2.86
2017-03-08T01:36:24.497Z,2.95
2017-03-08T01:37:04.954Z,2.89
2017-03-08T01:37:45.394Z,2.79
2017-03-08T01:38:25.870Z,2.89
2017-03-08T01:39:06.344Z,2.83
2017-03-08T01:39:46.947Z,2.8
2017-03-08T01:40:27.254Z,2.85
2017-03-08T01:41:07.757Z,2.87
2017-03-08T01:41:48.217Z,2.79
2017-03-08T01:42:28.746Z,2.9
2017-03-08T01:43:09.227Z,2.85
2017-03-08T01:43:49.696Z,2.77
2017-03-08T01:44:30.166Z,2.82
2017-03-08T01:45:10.652Z,2.92
2017-03-08T01:45:51.112Z,2.82
2017-03-08T01:46:31.633Z,2.85
2017-03-08T01:47:12.067Z,2.87
2017-03-08T01:47:52.593Z,2.89
2017-03-08T01:48:33.054Z,2.8
2017-03-08T01:49:13.518Z,2.8
2017-03-08T01:49:54.039Z,2.87
2017-03-08T01:50:34.528Z,2.9
2017-03-08T01:51:14.988Z,2.85
2017-03-08T01:51:55.455Z,2.8
2017-03-08T01:52:35.928Z,2.82
2017-03-08T01:53:16.409Z,2.77
2017-03-08T01:53:56.881Z,2.74
2017-03-08T01:54:37.360Z,2.75
2017-03-08T01:55:17.903Z,2.77
2017-03-08T01:55:58.406Z,2.74
2017-03-08T01:56:38.931Z,2.79
2017-03-08T01:57:19.407Z,2.71
2017-03-08T01:57:59.957Z,2.74
2017-03-08T01:58:40.363Z,2.77
2017-03-08T01:59:20.890Z,2.77
2017-03-08T02:00:01.427Z,2.75
2017-03-08T02:00:41.897Z,2.79
2017-03-08T02:01:22.388Z,2.75
2017-03-08T02:02:02.879Z,2.8
2017-03-08T02:02:43.391Z,2.82
2017-03-08T02:03:23.851Z,2.75
2017-03-08T02:04:04.310Z,2.75
2017-03-08T02:04:44.833Z,2.74
2017-03-08T02:05:25.274Z,2.8
2017-03-08T02:06:05.773Z,2.75
2017-03-08T02:06:46.276Z,2.79
2017-03-08T02:07:26.682Z,2.74
2017-03-08T02:08:07.278Z,2.75
2017-03-08T02:08:47.686Z,2.74
2017-03-08T02:09:28.181Z,2.71
2017-03-08T02:10:08.647Z,2.82
2017-03-08T02:10:49.135Z,2.82
2017-03-08T02:11:29.628Z,2.75
2017-03-08T02:12:10.154Z,2.72
2017-03-08T02:12:50.578Z,2.72
2017-03-08T02:13:31.095Z,2.64
2017-03-08T02:14:11.566Z,2.72
2017-03-08T02:14:52.064Z,2.71
2017-03-08T02:15:32.544Z,2.68
2017-03-08T02:16:12.992Z,2.77
2017-03-08T02:16:53.512Z,2.75
2017-03-08T02:17:33.983Z,2.65
2017-03-08T02:18:14.521Z,2.71
2017-03-08T02:18:55.062Z,2.68
2017-03-08T02:19:35.527Z,2.75
2017-03-08T02:20:16.056Z,2.69
2017-03-08T02:20:56.510Z,2.71
2017-03-08T02:21:36.971Z,2.72
2017-03-08T02:22:17.440Z,2.67
2017-03-08T02:22:57.922Z,2.77
2017-03-08T02:23:38.406Z,2.72
2017-03-08T02:24:18.892Z,2.75
2017-03-08T02:24:59.356Z,2.68
2017-03-08T02:25:39.881Z,2.72
2017-03-08T02:26:20.335Z,2.69
2017-03-08T02:27:00.806Z,2.69
2017-03-08T02:27:41.294Z,2.77
2017-03-08T02:28:21.763Z,2.71
2017-03-08T02:29:02.298Z,2.77
2017-03-08T02:29:42.739Z,2.74
2017-03-08T02:30:23.200Z,2.8
2017-03-08T02:31:03.641Z,2.74
2017-03-08T02:31:44.128Z,2.65
2017-03-08T02:32:24.614Z,2.69
2017-03-08T02:33:05.045Z,2.85
2017-03-08T02:33:45.548Z,2.72
2017-03-08T02:34:26.000Z,2.72
2017-03-08T02:35:06.520Z,2.68
2017-03-08T02:35:47.091Z,2.74
2017-03-08T02:36:27.631Z,2.71
2017-03-08T02:37:08.118Z,2.74
2017-03-08T02:37:48.652Z,2.77
2017-03-08T02:38:29.083Z,2.75
2017-03-08T02:39:09.536Z,2.74
2017-03-08T02:39:50.056Z,2.8
2017-03-08T02:40:30.470Z,2.8
2017-03-08T02:41:10.963Z,2.75
2017-03-08T02:41:51.407Z,2.83
2017-03-08T02:42:31.890Z,2.74
2017-03-08T02:43:12.348Z,2.85
2017-03-08T02:43:52.821Z,2.75
2017-03-08T02:44:33.425Z,2.83
2017-03-08T02:45:13.876Z,2.82
2017-03-08T02:45:54.323Z,2.83
2017-03-08T02:46:34.805Z,2.82
2017-03-08T02:47:15.315Z,2.8
2017-03-08T02:47:55.786Z,2.89
2017-03-08T02:48:36.243Z,2.82
2017-03-08T02:49:16.724Z,2.79
2017-03-08T02:49:57.232Z,2.85
2017-03-08T02:50:37.666Z,2.89
2017-03-08T02:51:18.210Z,2.79
2017-03-08T02:51:58.676Z,2.89
2017-03-08T02:52:39.100Z,2.87
2017-03-08T02:53:19.592Z,2.9
2017-03-08T02:54:00.045Z,2.89
2017-03-08T02:54:40.564Z,2.89
2017-03-08T02:55:21.034Z,2.79
2017-03-08T02:56:01.471Z,2.93
2017-03-08T02:56:42.053Z,2.92
2017-03-08T02:57:22.496Z,2.87
2017-03-08T02:58:03.050Z,2.95
2017-03-08T02:58:43.528Z,2.85
2017-03-08T02:59:23.952Z,2.86
2017-03-08T03:00:04.447Z,2.89
2017-03-08T03:00:44.909Z,2.89
2017-03-08T03:01:25.386Z,2.9
2017-03-08T03:02:05.837Z,2.79
2017-03-08T03:02:46.312Z,2.89
2017-03-08T03:03:26.804Z,2.86
2017-03-08T03:04:07.291Z,2.87
2017-03-08T03:04:47.787Z,2.85
2017-03-08T03:05:28.247Z,2.86
2017-03-08T03:06:08.820Z,2.79
2017-03-08T03:06:49.271Z,2.85
2017-03-08T03:07:29.723Z,2.9
2017-03-08T03:08:10.342Z,2.9
2017-03-08T03:08:50.800Z,2.9
2017-03-08T03:09:31.309Z,2.83
2017-03-08T03:10:11.766Z,2.79
2017-03-08T03:10:52.251Z,2.89
2017-03-08T03:11:32.742Z,2.85
2017-03-08T03:12:13.183Z,2.89
2017-03-08T03:12:53.696Z,2.79
2017-03-08T03:13:34.165Z,2.92
2017-03-08T03:14:14.649Z,2.89
2017-03-08T03:14:55.145Z,2.85
2017-03-08T03:15:35.597Z,2.86
2017-03-08T03:16:16.053Z,2.92
2017-03-08T03:16:56.595Z,2.89
2017-03-08T03:17:37.049Z,2.9
2017-03-08T03:18:17.520Z,2.83
2017-03-08T03:18:58.037Z,2.83
2017-03-08T03:19:38.583Z,2.86
2017-03-08T03:20:19.021Z,2.93
2017-03-08T03:20:59.472Z,2.89
2017-03-08T03:21:39.986Z,2.9
2017-03-08T03:22:20.466Z,2.9
2017-03-08T03:23:00.992Z,2.9
2017-03-08T03:23:41.389Z,2.89
2017-03-08T03:24:21.916Z,2.87
2017-03-08T03:25:02.428Z,2.95
2017-03-08T03:25:42.921Z,2.9
2017-03-08T03:26:23.403Z,2.9
2017-03-08T03:27:03.817Z,2.87
2017-03-08T03:27:44.310Z,2.9
2017-03-08T03:28:24.790Z,2.92
2017-03-08T03:29:05.272Z,2.92
2017-03-08T03:29:45.783Z,2.9
2017-03-08T03:30:26.253Z,2.87
2017-03-08T03:31:06.733Z,2.8
2017-03-08T03:31:47.250Z,2.92
2017-03-08T03:32:27.718Z,2.89
2017-03-08T03:33:08.148Z,2.9
2017-03-08T03:33:48.610Z,2.9
2017-03-08T03:34:29.083Z,2.89
2017-03-08T03:35:12.107Z,2.86
2017-03-08T03:35:52.611Z,2.86
2017-03-08T03:36:33.085Z,2.95
2017-03-08T03:37:13.591Z,2.82
2017-03-08T03:37:54.056Z,2.82
2017-03-08T03:38:34.537Z,2.85
2017-03-08T03:39:15.049Z,2.86
2017-03-08T03:39:55.554Z,2.87
2017-03-08T03:40:36.025Z,2.93
2017-03-08T03:41:16.528Z,2.83
2017-03-08T03:41:56.958Z,2.79
2017-03-08T03:42:37.474Z,2.75
2017-03-08T03:43:17.916Z,2.74
2017-03-08T03:43:58.398Z,2.79
2017-03-08T03:44:38.840Z,2.71
2017-03-08T03:45:19.333Z,2.67
2017-03-08T03:45:59.818Z,2.72
2017-03-08T03:46:40.252Z,2.71
2017-03-08T03:47:20.784Z,2.71
2017-03-08T03:48:01.219Z,2.65
2017-03-08T03:48:41.681Z,2.62
2017-03-08T03:49:22.194Z,2.67
2017-03-08T03:50:02.650Z,2.64
2017-03-08T03:50:43.053Z,2.57
2017-03-08T03:51:23.583Z,2.54
2017-03-08T03:52:04.018Z,2.49
2017-03-08T03:52:44.530Z,2.53
2017-03-08T03:53:25.030Z,2.5
2017-03-08T03:54:05.444Z,2.53
2017-03-08T03:54:45.984Z,2.36
2017-03-08T03:55:26.456Z,2.36
2017-03-08T03:56:06.958Z,2.31
2017-03-08T03:56:47.495Z,2.42
2017-03-08T03:57:27.924Z,2.35
2017-03-08T03:58:08.409Z,2.32
2017-03-08T03:58:48.889Z,2.35
2017-03-08T03:59:29.323Z,2.33
2017-03-08T04:00:09.879Z,2.33
2017-03-08T04:00:50.346Z,2.31
2017-03-08T04:01:30.766Z,2.28
2017-03-08T04:02:11.226Z,2.31
2017-03-08T04:02:51.741Z,2.22
2017-03-08T04:03:32.332Z,2.22
2017-03-08T04:04:12.779Z,2.31
2017-03-08T04:04:53.269Z,2.28
2017-03-08T04:05:33.768Z,2.22
2017-03-08T04:06:14.228Z,2.22
2017-03-08T04:06:54.709Z,2.22
2017-03-08T04:07:35.244Z,2.25
2017-03-08T04:08:15.698Z,2.2
2017-03-08T04:08:56.192Z,2.14
2017-03-08T04:09:36.620Z,2.18
2017-03-08T04:10:17.128Z,2.13
2017-03-08T04:10:57.621Z,2.18
2017-03-08T04:11:38.062Z,2.2
2017-03-08T04:12:18.540Z,2.15
2017-03-08T04:12:59.003Z,2.22
2017-03-08T04:13:39.583Z,2.25
2017-03-08T04:14:20.014Z,2.2
2017-03-08T04:15:00.479Z,2.24
2017-03-08T04:15:41.006Z,2.26
2017-03-08T04:16:21.465Z,2.22
2017-03-08T04:17:01.906Z,2.24
2017-03-08T04:17:42.420Z,2.25
2017-03-08T04:18:22.924Z,2.22
2017-03-08T04:19:03.384Z,2.26
2017-03-08T04:19:43.820Z,2.26
2017-03-08T04:20:24.286Z,2.31
2017-03-08T04:21:04.818Z,2.26
2017-03-08T04:21:45.267Z,2.31
2017-03-08T04:22:25.764Z,2.24
2017-03-08T04:23:06.230Z,2.29
2017-03-08T04:23:46.662Z,2.31
2017-03-08T04:24:27.206Z,2.28
2017-03-08T04:25:07.704Z,2.26
2017-03-08T04:25:48.133Z,2.26
2017-03-08T04:26:28.632Z,2.35
2017-03-08T04:27:09.118Z,2.31
2017-03-08T04:27:49.592Z,2.24
2017-03-08T04:28:30.059Z,2.32
2017-03-08T04:29:10.586Z,2.29
2017-03-08T04:29:51.070Z,2.32
2017-03-08T04:30:31.575Z,2.32
2017-03-08T04:31:12.057Z,2.25
2017-03-08T04:31:52.605Z,2.32
2017-03-08T04:32:33.020Z,2.26
2017-03-08T04:33:13.496Z,2.32
2017-03-08T04:33:53.950Z,2.38
2017-03-08T04:34:34.453Z,2.32
2017-03-08T04:35:15.001Z,2.42
2017-03-08T04:35:55.515Z,2.35
2017-03-08T04:36:35.969Z,2.39
2017-03-08T04:37:16.518Z,2.35
2017-03-08T04:37:56.944Z,2.38
2017-03-08T04:38:37.396Z,2.39
2017-03-08T04:39:17.836Z,2.36
2017-03-08T04:39:58.316Z,2.38
2017-03-08T04:40:38.813Z,2.36
2017-03-08T04:41:19.322Z,2.39
2017-03-08T04:41:59.794Z,2.49
2017-03-08T04:42:40.288Z,2.35
2017-03-08T04:43:20.814Z,2.5
2017-03-08T04:44:01.230Z,2.36
2017-03-08T04:44:41.667Z,2.5
2017-03-08T04:45:22.138Z,2.32
2017-03-08T04:46:02.642Z,2.46
2017-03-08T04:46:43.109Z,2.38
2017-03-08T04:47:23.590Z,2.49
2017-03-08T04:48:04.032Z,2.47
2017-03-08T04:48:44.523Z,2.47
2017-03-08T04:49:25.063Z,2.47
2017-03-08T04:50:05.504Z,2.47
2017-03-08T04:50:45.975Z,2.47
2017-03-08T04:51:26.470Z,2.38
2017-03-08T04:52:06.987Z,2.47
2017-03-08T04:52:47.444Z,2.51
2017-03-08T04:53:27.958Z,2.5
2017-03-08T04:54:08.426Z,2.47
2017-03-08T04:54:48.865Z,2.49
2017-03-08T04:55:29.392Z,2.49
2017-03-08T04:56:09.912Z,2.47
2017-03-08T04:56:50.389Z,2.36
2017-03-08T04:57:30.911Z,2.39
2017-03-08T04:58:11.392Z,2.42
2017-03-08T04:58:51.822Z,2.49
2017-03-08T04:59:32.299Z,2.36
2017-03-08T05:00:12.795Z,2.5
2017-03-08T05:00:53.306Z,2.36
2017-03-08T05:01:33.794Z,2.53
2017-03-08T05:02:14.345Z,2.38
2017-03-08T05:02:54.768Z,2.39
2017-03-08T05:03:35.256Z,2.42
2017-03-08T05:04:15.746Z,2.44
2017-03-08T05:04:56.226Z,2.44
2017-03-08T05:05:36.737Z,2.49
2017-03-08T05:06:17.155Z,2.47
2017-03-08T05:06:57.672Z,2.47
2017-03-08T05:07:38.165Z,2.46
2017-03-08T05:08:18.603Z,2.47
2017-03-08T05:08:59.147Z,2.56
2017-03-08T05:09:39.572Z,2.53
2017-03-08T05:10:20.075Z,2.49
2017-03-08T05:11:00.545Z,2.47
2017-03-08T05:11:41.036Z,2.53
2017-03-08T05:12:21.577Z,2.54
2017-03-08T05:13:02.067Z,2.57
2017-03-08T05:13:42.557Z,2.54
2017-03-08T05:14:23.059Z,2.5
2017-03-08T05:15:03.746Z,2.57
2017-03-08T05:15:44.521Z,2.47
2017-03-08T05:16:25.289Z,2.54
2017-03-08T05:17:06.078Z,2.6
2017-03-08T05:17:46.711Z,2.62
2017-03-08T05:18:27.227Z,2.47
2017-03-08T05:19:07.674Z,2.51
2017-03-08T05:19:48.100Z,2.49
2017-03-08T05:20:28.574Z,2.53
2017-03-08T05:21:15.576Z,2.51
2017-03-08T05:21:56.037Z,2.56
2017-03-08T05:22:36.501Z,2.54
2017-03-08T05:23:16.985Z,2.54
2017-03-08T05:23:57.436Z,2.53
2017-03-08T05:24:37.917Z,2.5
2017-03-08T05:25:18.391Z,2.65
2017-03-08T05:25:58.869Z,2.56
2017-03-08T05:26:39.363Z,2.57
2017-03-08T05:27:19.849Z,2.51
2017-03-08T05:28:00.336Z,2.61
2017-03-08T05:28:40.845Z,2.61
2017-03-08T05:29:21.330Z,2.6
2017-03-08T05:30:01.797Z,2.56
2017-03-08T05:30:42.260Z,2.62
2017-03-08T05:31:22.742Z,2.67
2017-03-08T05:32:03.211Z,2.67
2017-03-08T05:32:43.692Z,2.67
2017-03-08T05:33:24.209Z,2.67
2017-03-08T05:34:04.642Z,2.64
2017-03-08T05:34:45.093Z,2.6
2017-03-08T05:35:25.544Z,2.69
2017-03-08T05:36:06.019Z,2.61
2017-03-08T05:36:46.499Z,2.62
2017-03-08T05:37:27.025Z,2.62
2017-03-08T05:38:07.529Z,2.57
2017-03-08T05:38:47.998Z,2.67
2017-03-08T05:39:28.482Z,2.65
2017-03-08T05:40:08.980Z,2.6
2017-03-08T05:40:49.460Z,2.68
2017-03-08T05:41:29.942Z,2.54
2017-03-08T05:42:10.412Z,2.65
2017-03-08T05:42:50.922Z,2.79
2017-03-08T05:43:31.341Z,2.71
2017-03-08T05:44:11.847Z,2.64
2017-03-08T05:44:52.325Z,2.68
2017-03-08T05:45:32.808Z,2.69
2017-03-08T05:46:13.305Z,2.6
2017-03-08T05:46:53.774Z,2.67
2017-03-08T05:47:34.248Z,2.74
2017-03-08T05:48:14.759Z,2.67
2017-03-08T05:48:55.346Z,2.69
2017-03-08T05:49:35.832Z,2.71
2017-03-08T05:50:16.280Z,2.74
2017-03-08T05:50:56.740Z,2.72
2017-03-08T05:51:37.246Z,2.72
2017-03-08T05:52:17.639Z,2.68
2017-03-08T05:52:58.156Z,2.65
2017-03-08T05:53:38.624Z,2.69
2017-03-08T05:54:19.131Z,2.68
2017-03-08T05:54:59.589Z,2.68
2017-03-08T05:55:40.049Z,2.67
2017-03-08T05:56:20.574Z,2.72
2017-03-08T05:57:01.037Z,2.72
2017-03-08T05:57:41.527Z,2.69
2017-03-08T05:58:22.041Z,2.79
2017-03-08T05:59:02.521Z,2.72
2017-03-08T05:59:42.962Z,2.74
2017-03-08T06:00:23.524Z,2.77
2017-03-08T06:01:04.016Z,2.75
2017-03-08T06:01:44.506Z,2.72
2017-03-08T06:02:24.980Z,2.77
2017-03-08T06:03:05.504Z,2.75
2017-03-08T06:03:46.263Z,2.77
2017-03-08T06:04:26.753Z,2.75
2017-03-08T06:05:07.902Z,2.74
2017-03-08T06:05:48.340Z,2.8
2017-03-08T06:06:28.930Z,2.8
2017-03-08T06:07:09.405Z,2.86
2017-03-08T06:07:49.901Z,2.86
2017-03-08T06:08:30.399Z,2.86
2017-03-08T06:09:11.025Z,2.83
2017-03-08T06:09:51.674Z,2.87
2017-03-08T06:10:31.931Z,2.85
2017-03-08T06:11:12.416Z,2.89
2017-03-08T06:11:52.866Z,2.86
2017-03-08T06:12:33.372Z,2.9
2017-03-08T06:13:14.800Z,2.86
2017-03-08T06:13:55.268Z,2.87
2017-03-08T06:14:35.723Z,2.9
2017-03-08T06:15:16.184Z,2.95
2017-03-08T06:15:56.694Z,2.89
2017-03-08T06:16:37.185Z,2.77
2017-03-08T06:17:17.645Z,2.9
2017-03-08T06:17:58.108Z,2.87
2017-03-08T06:18:38.576Z,2.79
2017-03-08T06:19:19.043Z,2.86
2017-03-08T06:19:59.516Z,2.82
2017-03-08T06:20:39.969Z,2.79
2017-03-08T06:21:20.460Z,2.93
2017-03-08T06:22:00.916Z,2.87
2017-03-08T06:22:41.387Z,2.83
2017-03-08T06:23:21.877Z,2.86
2017-03-08T06:25:35.664Z,2.87
2017-03-08T06:26:19.295Z,2.82
2017-03-08T06:27:00.424Z,2.83
2017-03-08T06:27:40.882Z,2.92
2017-03-08T06:28:21.377Z,2.86
2017-03-08T06:29:01.820Z,2.86
2017-03-08T06:29:42.263Z,2.83
2017-03-08T06:30:22.835Z,2.87
2017-03-08T06:31:03.297Z,2.89
2017-03-08T06:31:43.744Z,2.86
2017-03-08T06:32:24.253Z,2.89
2017-03-08T06:33:04.714Z,2.87
2017-03-08T06:33:45.187Z,2.95
2017-03-08T06:34:25.690Z,2.9
2017-03-08T06:35:06.166Z,2.9
2017-03-08T06:35:46.611Z,3
2017-03-08T06:36:27.072Z,3
2017-03-08T06:37:07.538Z,2.98
2017-03-08T06:37:48.061Z,2.97
2017-03-08T06:38:28.536Z,3.03
2017-03-08T06:39:09.055Z,3.03
2017-03-08T06:39:49.469Z,3.03
2017-03-08T06:40:29.995Z,3.1
2017-03-08T06:41:10.408Z,3.08
2017-03-08T06:41:50.857Z,3.1
2017-03-08T06:42:31.371Z,3.1
2017-03-08T06:43:11.846Z,3.19
2017-03-08T06:43:52.318Z,3.21
2017-03-08T06:44:32.778Z,3.21
2017-03-08T06:45:13.266Z,3.21
2017-03-08T06:45:53.752Z,3.22
2017-03-08T06:46:34.244Z,3.21
2017-03-08T06:47:14.665Z,3.19
2017-03-08T06:47:55.146Z,3.26
2017-03-08T06:48:35.630Z,3.28
2017-03-08T06:49:16.157Z,3.29
2017-03-08T06:49:56.598Z,3.25
2017-03-08T06:50:37.073Z,3.32
2017-03-08T06:51:17.552Z,3.28
2017-03-08T06:51:58.024Z,3.29
2017-03-08T06:52:38.466Z,3.31
2017-03-08T06:53:18.970Z,3.36
2017-03-08T06:53:59.435Z,3.34
2017-03-08T06:54:39.926Z,3.28
2017-03-08T06:55:20.377Z,3.32
2017-03-08T06:56:00.851Z,3.32
2017-03-08T06:56:41.336Z,3.42
2017-03-08T06:57:21.793Z,3.37
2017-03-08T06:58:02.281Z,3.41
2017-03-08T06:58:42.705Z,3.45
2017-03-08T06:59:23.233Z,3.55
2017-03-08T07:00:03.727Z,3.5
2017-03-08T07:00:44.178Z,3.44
2017-03-08T07:01:24.669Z,3.55
2017-03-08T07:02:05.113Z,3.53
2017-03-08T07:02:45.568Z,3.56
2017-03-08T07:03:26.106Z,3.45
2017-03-08T07:04:06.547Z,3.51
2017-03-08T07:04:47.033Z,3.62
2017-03-08T07:05:27.469Z,3.55
2017-03-08T07:06:07.943Z,3.62
2017-03-08T07:06:48.417Z,3.53
2017-03-08T07:07:28.897Z,3.59
2017-03-08T07:08:09.352Z,3.59
2017-03-08T07:08:49.798Z,3.55
2017-03-08T07:09:30.303Z,3.65
2017-03-08T07:10:10.782Z,3.59
2017-03-08T07:10:51.273Z,3.6
2017-03-08T07:11:31.730Z,3.55
2017-03-08T07:13:31.293Z,3.68
2017-03-08T07:14:12.386Z,3.65
2017-03-08T07:14:52.882Z,3.65
2017-03-08T07:15:33.363Z,3.63
2017-03-08T07:16:13.819Z,3.74
2017-03-08T07:16:54.269Z,3.7
2017-03-08T07:17:34.798Z,3.74
2017-03-08T07:18:15.324Z,3.77
2017-03-08T07:18:55.760Z,3.73
2017-03-08T07:19:36.248Z,3.78
2017-03-08T07:20:16.794Z,3.88
2017-03-08T07:20:57.248Z,3.86
2017-03-08T07:21:39.304Z,3.84
2017-03-08T07:22:19.755Z,3.87
2017-03-08T07:23:00.243Z,3.96
2017-03-08T07:23:40.756Z,3.99
2017-03-08T07:24:21.216Z,4.01
2017-03-08T07:25:01.679Z,4.01
2017-03-08T07:25:42.153Z,4.06
2017-03-08T07:26:22.629Z,4.02
2017-03-08T07:27:03.124Z,3.95
2017-03-08T07:27:43.577Z,3.87
2017-03-08T07:28:24.087Z,3.95
2017-03-08T07:29:04.528Z,3.98
2017-03-08T07:29:45.007Z,3.98
2017-03-08T07:30:25.479Z,3.98
2017-03-08T07:31:05.969Z,3.95
2017-03-08T07:31:46.442Z,3.96
2017-03-08T07:32:26.932Z,3.99
2017-03-08T07:33:07.395Z,4.04
2017-03-08T07:33:47.818Z,3.99
2017-03-08T07:34:28.276Z,4.1
2017-03-08T07:35:08.799Z,4.12
2017-03-08T07:35:49.270Z,4.1
2017-03-08T07:36:29.808Z,4.08
2017-03-08T07:37:10.314Z,4.13
2017-03-08T07:37:50.739Z,4.06
2017-03-08T07:38:31.245Z,4.13
2017-03-08T07:39:11.728Z,4.19
2017-03-08T07:39:52.180Z,4.16
2017-03-08T07:40:32.689Z,4.19
2017-03-08T07:41:13.171Z,4.14
2017-03-08T07:41:54.353Z,4.17
2017-03-08T07:42:34.856Z,4.19
2017-03-08T07:43:15.294Z,4.14
2017-03-08T07:43:55.749Z,4.17
2017-03-08T07:44:36.223Z,4.2
2017-03-08T07:45:16.700Z,4.24
2017-03-08T07:45:57.175Z,4.19
2017-03-08T07:46:37.709Z,4.16
2017-03-08T07:47:18.167Z,4.12
2017-03-08T07:47:58.639Z,4.14
2017-03-08T07:48:39.110Z,4.23
2017-03-08T07:49:19.599Z,4.28
2017-03-08T07:50:00.168Z,4.26
2017-03-08T07:50:41.165Z,4.28
2017-03-08T07:51:22.220Z,4.28
2017-03-08T07:52:02.821Z,4.23
2017-03-08T07:52:43.330Z,4.24
2017-03-08T07:53:24.069Z,4.28
2017-03-08T07:54:04.553Z,4.26
2017-03-08T07:54:45.280Z,4.26
2017-03-08T07:55:26.633Z,4.23
2017-03-08T07:56:07.973Z,4.38
2017-03-08T07:56:48.456Z,4.24
2017-03-08T07:57:28.900Z,4.31
2017-03-08T07:58:09.385Z,4.4
2017-03-08T07:58:49.879Z,4.24
2017-03-08T07:59:30.323Z,4.37
2017-03-08T08:00:10.819Z,4.24
2017-03-08T08:00:51.290Z,4.31
2017-03-08T08:01:31.781Z,4.34
2017-03-08T08:02:12.452Z,4.38
2017-03-08T08:02:53.300Z,4.37
2017-03-08T08:03:37.275Z,4.35
2017-03-08T08:04:25.155Z,4.38
2017-03-08T08:05:13.981Z,4.31
2017-03-08T08:05:54.814Z,4.37
2017-03-08T08:06:35.456Z,4.37
2017-03-08T08:07:16.154Z,4.45
2017-03-08T08:07:58.911Z,4.52
2017-03-08T08:08:39.646Z,4.52
2017-03-08T08:09:20.445Z,4.44
2017-03-08T08:10:05.834Z,4.5
2017-03-08T08:10:51.519Z,4.48
2017-03-08T08:11:39.051Z,4.48
2017-03-08T08:12:28.679Z,4.49
2017-03-08T08:13:12.525Z,4.48
2017-03-08T08:13:53.147Z,4.5
2017-03-08T08:14:33.968Z,4.44
2017-03-08T08:15:14.705Z,4.42
2017-03-08T08:15:55.390Z,4.42
2017-03-08T08:16:36.112Z,4.48
2017-03-08T08:17:17.010Z,4.53
2017-03-08T08:18:00.946Z,4.59
2017-03-08T08:19:53.372Z,4.45
2017-03-08T08:20:39.442Z,4.48
2017-03-08T08:21:19.192Z,4.62
2017-03-08T08:21:59.934Z,4.56
2017-03-08T08:22:41.263Z,4.58
2017-03-08T08:23:22.257Z,4.58
2017-03-08T08:24:02.988Z,4.6
2017-03-08T08:24:43.715Z,4.67
2017-03-08T08:25:24.521Z,4.7
2017-03-08T08:26:04.992Z,4.6
2017-03-08T08:26:45.483Z,4.68
2017-03-08T08:28:48.262Z,4.66
2017-03-08T08:29:38.579Z,4.67
2017-03-08T08:30:30.660Z,4.73
2017-03-08T08:31:20.174Z,4.74
2017-03-08T08:32:00.600Z,4.67
2017-03-08T08:32:41.088Z,4.66
2017-03-08T08:33:21.588Z,4.63
2017-03-08T08:34:02.055Z,4.73
2017-03-08T08:34:42.528Z,4.8
2017-03-08T08:35:22.994Z,4.7
2017-03-08T08:36:03.464Z,4.66
2017-03-08T08:36:43.934Z,4.6
2017-03-08T08:37:24.569Z,4.74
2017-03-08T08:38:05.054Z,4.63
2017-03-08T08:38:45.500Z,4.75
2017-03-08T08:39:26.006Z,4.75
2017-03-08T08:40:06.569Z,4.84
2017-03-08T08:40:47.106Z,4.78
2017-03-08T08:41:38.153Z,4.78
2017-03-08T08:42:21.033Z,4.86
2017-03-08T08:43:03.159Z,4.82
2017-03-08T08:43:43.682Z,4.87
2017-03-08T08:44:24.138Z,4.89
2017-03-08T08:45:04.642Z,4.96
2017-03-08T08:45:45.212Z,4.89
2017-03-08T08:46:25.786Z,4.92
2017-03-08T08:47:06.371Z,4.94
2017-03-08T08:47:46.899Z,4.92
2017-03-08T08:48:27.372Z,4.97
2017-03-08T08:49:07.833Z,4.9
2017-03-08T08:49:52.675Z,4.94
2017-03-08T08:50:33.249Z,4.97
2017-03-08T08:51:13.789Z,4.99
2017-03-08T08:51:54.344Z,4.96
2017-03-08T08:52:34.881Z,4.99
2017-03-08T08:53:15.373Z,5.11
2017-03-08T08:53:55.868Z,5.14
2017-03-08T08:54:36.430Z,5.1
2017-03-08T08:55:17.286Z,5.1
2017-03-08T08:55:57.991Z,5.05
2017-03-08T08:56:38.443Z,5.08
2017-03-08T08:57:18.973Z,5.07
2017-03-08T08:57:59.561Z,5.12
2017-03-08T08:58:40.076Z,5.14
2017-03-08T08:59:20.587Z,5.17
2017-03-08T09:00:01.090Z,5.17
2017-03-08T09:00:41.596Z,5.12
2017-03-08T09:01:22.071Z,5.23
2017-03-08T09:02:02.532Z,5.18
2017-03-08T09:02:43.037Z,5.23
2017-03-08T09:03:23.544Z,5.15
2017-03-08T09:04:04.023Z,5.23
2017-03-08T09:04:44.495Z,5.23
2017-03-08T09:05:25.074Z,5.2
2017-03-08T09:06:06.143Z,5.28
2017-03-08T09:06:46.659Z,5.33
2017-03-08T09:07:27.139Z,5.32
2017-03-08T09:08:07.644Z,5.3
2017-03-08T09:08:48.161Z,5.3